createdAt,value
2022-07-29T00:00:20.282Z,0.60
2022-07-29T00:02:48.134Z,1.40
2022-07-29T00:05:16.224Z,1.83
2022-07-29T00:07:44.144Z,3.78
2022-07-29T00:10:11.438Z,0.85
2022-07-29T00:12:38.963Z,1.75
2022-07-29T00:15:06.570Z,1.95
2022-07-29T00:17:35.085Z,2.15
2022-07-29T00:20:02.419Z,1.73
2022-07-29T00:22:29.778Z,1.17
2022-07-29T00:24:57.088Z,1.17
2022-07-29T00:27:24.461Z,1.55
2022-07-29T00:29:51.813Z,1.35
2022-07-29T00:32:19.090Z,3.25
2022-07-29T00:35:05.241Z,2.72
2022-07-29T00:37:32.503Z,3.30
2022-07-29T00:39:59.937Z,1.67
2022-07-29T00:42:27.323Z,2.05
2022-07-29T00:44:54.716Z,1.30
2022-07-29T00:47:22.110Z,0.85
2022-07-29T00:49:49.451Z,1.50
2022-07-29T00:52:17.145Z,1.67
2022-07-29T00:54:45.099Z,0.80
2022-07-29T00:57:13.139Z,1.45
2022-07-29T00:59:41.068Z,1.33
2022-07-29T01:02:08.440Z,0.90
2022-07-29T01:04:35.830Z,1.77
2022-07-29T01:07:04.038Z,1.70
2022-07-29T01:09:45.315Z,3.08
2022-07-29T01:12:16.769Z,1.70
2022-07-29T01:14:44.236Z,1.77
2022-07-29T01:17:18.149Z,1.40
2022-07-29T01:19:45.401Z,0.57
2022-07-29T01:22:32.971Z,1.98
2022-07-29T01:25:26.378Z,2.40
2022-07-29T01:28:01.806Z,0.30
2022-07-29T01:30:31.560Z,0.90
2022-07-29T01:33:01.434Z,1.95
2022-07-29T01:35:32.843Z,1.92
2022-07-29T01:38:08.898Z,1.00
2022-07-29T01:40:48.458Z,0.95
2022-07-29T01:43:21.068Z,1.77
2022-07-29T01:45:51.367Z,2.95
2022-07-29T01:48:23.112Z,2.10
2022-07-29T01:50:52.435Z,2.08
2022-07-29T01:53:26.313Z,3.20
2022-07-29T01:55:53.613Z,2.25
2022-07-29T01:58:21.537Z,0.55
2022-07-29T02:00:50.199Z,2.70
2022-07-29T02:03:18.096Z,1.85
2022-07-29T02:05:46.740Z,1.65
2022-07-29T02:08:15.110Z,2.25
2022-07-29T02:10:44.077Z,2.95
2022-07-29T02:13:12.172Z,0.45
2022-07-29T02:15:40.519Z,1.08
2022-07-29T02:18:17.390Z,0.88
2022-07-29T02:20:49.399Z,0.57
2022-07-29T02:23:18.539Z,0.95
2022-07-29T02:25:45.927Z,2.83
2022-07-29T02:28:15.266Z,1.48
2022-07-29T02:30:43.702Z,2.00
2022-07-29T02:33:12.205Z,0.50
2022-07-29T02:35:40.295Z,1.73
2022-07-29T02:38:26.785Z,2.00
2022-07-29T02:40:55.316Z,1.98
2022-07-29T02:43:24.165Z,1.33
2022-07-29T02:45:53.517Z,0.70
2022-07-29T02:48:24.466Z,1.95
2022-07-29T02:51:00.903Z,1.40
2022-07-29T02:53:28.763Z,1.15
2022-07-29T02:55:58.985Z,0.50
2022-07-29T02:58:29.519Z,1.95
2022-07-29T03:01:01.459Z,1.98
2022-07-29T03:03:31.267Z,0.60
2022-07-29T03:05:59.190Z,0.60
2022-07-29T03:08:26.700Z,1.42
2022-07-29T03:10:54.779Z,1.52
2022-07-29T03:13:22.412Z,0.98
2022-07-29T03:15:49.958Z,0.68
2022-07-29T03:18:17.397Z,1.52
2022-07-29T03:20:44.733Z,0.30
2022-07-29T03:23:12.040Z,1.52
2022-07-29T03:25:39.394Z,1.42
2022-07-29T03:28:06.699Z,0.88
2022-07-29T03:30:34.030Z,3.25
2022-07-29T03:33:02.027Z,0.60
2022-07-29T03:35:30.921Z,0.40
2022-07-29T03:37:58.221Z,1.02
2022-07-29T03:40:32.027Z,0.82
2022-07-29T03:43:00.196Z,3.00
2022-07-29T03:45:28.412Z,0.82
2022-07-29T03:48:00.954Z,1.65
2022-07-29T03:50:29.170Z,2.47
2022-07-29T03:52:56.518Z,0.68
2022-07-29T03:55:23.906Z,0.73
2022-07-29T03:57:51.415Z,0.82
2022-07-29T04:00:18.837Z,2.17
2022-07-29T04:02:49.603Z,1.02
2022-07-29T04:07:48.439Z,5.78
2022-07-29T04:12:44.275Z,2.85
2022-07-29T04:15:11.948Z,1.02
2022-07-29T04:17:39.495Z,1.33
2022-07-29T04:20:07.308Z,0.35
2022-07-29T04:22:34.674Z,0.63
2022-07-29T04:25:04.293Z,1.27
2022-07-29T04:27:31.914Z,0.70
2022-07-29T04:29:59.261Z,1.42
2022-07-29T04:32:27.309Z,2.40
2022-07-29T04:34:54.880Z,1.52
2022-07-29T04:37:22.186Z,1.35
2022-07-29T04:39:49.492Z,2.78
2022-07-29T04:42:16.802Z,0.85
2022-07-29T04:44:44.707Z,2.42
2022-07-29T04:47:13.141Z,3.25
2022-07-29T04:49:40.739Z,0.22
2022-07-29T04:52:08.395Z,0.30
2022-07-29T04:54:35.852Z,1.80
2022-07-29T04:57:03.197Z,1.05
2022-07-29T04:59:30.504Z,1.92
2022-07-29T05:01:57.851Z,2.88
2022-07-29T05:04:25.200Z,2.80
2022-07-29T05:06:52.472Z,1.13
2022-07-29T05:09:19.799Z,1.13
2022-07-29T05:11:47.194Z,1.60
2022-07-29T05:14:14.971Z,1.10
2022-07-29T05:16:43.160Z,0.63
2022-07-29T05:19:14.151Z,0.90
2022-07-29T05:21:41.818Z,0.88
2022-07-29T05:24:09.185Z,0.70
2022-07-29T05:26:36.624Z,7.20
2022-07-29T05:29:03.972Z,1.27
2022-07-29T05:31:31.391Z,1.42
2022-07-29T05:33:58.771Z,0.93
2022-07-29T05:36:26.051Z,2.58
2022-07-29T05:38:53.419Z,1.17
2022-07-29T05:41:21.307Z,0.93
2022-07-29T05:43:48.742Z,1.73
2022-07-29T05:46:16.331Z,2.58
2022-07-29T05:48:43.748Z,0.32
2022-07-29T05:51:11.241Z,2.60
2022-07-29T05:53:38.532Z,0.95
2022-07-29T05:56:06.501Z,2.17
2022-07-29T05:58:33.877Z,2.72
2022-07-29T06:01:01.724Z,3.22
2022-07-29T06:03:29.640Z,1.92
2022-07-29T06:05:57.019Z,1.25
2022-07-29T06:08:24.601Z,1.15
2022-07-29T06:10:51.895Z,2.03
2022-07-29T06:13:19.232Z,2.45
2022-07-29T06:15:46.615Z,2.25
2022-07-29T06:18:14.709Z,2.40
2022-07-29T06:20:42.085Z,1.42
2022-07-29T06:23:10.966Z,1.02
2022-07-29T06:25:38.765Z,3.40
2022-07-29T06:28:06.169Z,1.15
2022-07-29T06:30:33.680Z,2.13
2022-07-29T06:33:02.417Z,0.38
2022-07-29T06:35:38.797Z,1.33
2022-07-29T06:38:25.079Z,1.48
2022-07-29T06:41:07.075Z,4.20
2022-07-29T06:43:35.960Z,2.28
2022-07-29T06:46:18.836Z,0.95
2022-07-29T06:48:46.846Z,1.40
2022-07-29T06:51:14.239Z,5.60
2022-07-29T06:54:01.422Z,4.90
2022-07-29T06:56:29.410Z,2.97
2022-07-29T06:58:56.765Z,2.83
2022-07-29T07:01:24.203Z,4.05
2022-07-29T07:03:51.591Z,1.48
2022-07-29T07:06:18.888Z,0.60
2022-07-29T07:08:46.202Z,0.90
2022-07-29T07:11:13.499Z,1.00
2022-07-29T07:13:40.802Z,0.20
2022-07-29T07:16:08.087Z,0.80
2022-07-29T07:18:35.391Z,5.55
2022-07-29T07:21:02.702Z,3.03
2022-07-29T07:23:29.974Z,3.72
2022-07-29T07:25:57.348Z,2.75
2022-07-29T07:28:25.268Z,1.58
2022-07-29T07:30:52.981Z,3.55
2022-07-29T07:33:20.580Z,1.70
2022-07-29T07:35:48.166Z,5.25
2022-07-29T07:38:15.488Z,5.13
2022-07-29T07:40:42.909Z,3.78
2022-07-29T07:43:10.243Z,1.50
2022-07-29T07:45:38.619Z,3.40
2022-07-29T07:48:06.408Z,4.60
2022-07-29T07:50:33.727Z,2.90
2022-07-29T07:53:03.130Z,7.63
2022-07-29T07:55:42.400Z,2.95
2022-07-29T07:58:17.858Z,1.88
2022-07-29T08:00:45.250Z,2.47
2022-07-29T08:03:16.725Z,4.07
2022-07-29T08:05:44.753Z,5.65
2022-07-29T08:08:12.121Z,5.10
2022-07-29T08:10:54.639Z,2.70
2022-07-29T08:13:22.697Z,3.38
2022-07-29T08:15:58.757Z,2.78
2022-07-29T08:18:26.953Z,3.35
2022-07-29T08:20:54.266Z,6.57
2022-07-29T08:23:21.676Z,7.80
2022-07-29T08:25:50.297Z,2.15
2022-07-29T08:28:17.902Z,2.00
2022-07-29T08:30:45.493Z,1.85
2022-07-29T08:33:12.802Z,1.45
2022-07-29T08:35:41.253Z,1.00
2022-07-29T08:38:08.581Z,0.30
2022-07-29T08:40:35.927Z,1.25
2022-07-29T08:43:10.164Z,3.47
2022-07-29T08:45:47.495Z,3.42
2022-07-29T08:48:17.704Z,1.30
2022-07-29T08:50:46.513Z,4.00
2022-07-29T08:53:15.254Z,1.60
2022-07-29T08:55:44.432Z,3.05
2022-07-29T08:58:11.825Z,3.13
2022-07-29T09:00:44.664Z,16.95
2022-07-29T09:03:14.624Z,3.38
2022-07-29T09:05:48.240Z,6.75
2022-07-29T09:08:16.561Z,3.72
2022-07-29T09:10:44.326Z,0.43
2022-07-29T09:13:11.857Z,0.35
2022-07-29T09:15:39.172Z,1.55
2022-07-29T09:18:06.504Z,0.50
2022-07-29T09:20:52.550Z,0.85
2022-07-29T09:23:23.081Z,1.65
2022-07-29T09:25:52.227Z,0.77
2022-07-29T09:28:19.726Z,1.05
2022-07-29T09:30:55.347Z,0.57
2022-07-29T09:33:23.439Z,0.40
2022-07-29T09:36:01.927Z,2.35
2022-07-29T09:38:30.005Z,2.50
2022-07-29T09:41:06.117Z,0.10
2022-07-29T09:43:34.094Z,1.60
2022-07-29T09:46:14.345Z,3.00
2022-07-29T09:48:41.793Z,2.63
2022-07-29T09:51:25.563Z,1.70
2022-07-29T09:53:55.815Z,0.43
2022-07-29T09:56:31.833Z,8.90
2022-07-29T09:59:09.390Z,0.98
2022-07-29T10:01:37.097Z,1.17
2022-07-29T10:04:04.576Z,1.35
2022-07-29T10:06:31.915Z,2.35
2022-07-29T10:09:09.499Z,0.63
2022-07-29T10:11:49.516Z,2.55
2022-07-29T10:14:17.330Z,0.22
2022-07-29T10:16:45.027Z,1.50
2022-07-29T10:19:12.630Z,0.73
2022-07-29T10:21:44.267Z,0.93
2022-07-29T10:24:14.599Z,1.23
2022-07-29T10:26:42.975Z,0.52
2022-07-29T10:29:10.638Z,3.15
2022-07-29T10:31:59.572Z,1.88
2022-07-29T10:34:45.424Z,0.75
2022-07-29T10:37:24.454Z,0.43
2022-07-29T10:40:02.152Z,0.28
2022-07-29T10:42:34.516Z,0.63
2022-07-29T10:45:02.683Z,0.82
2022-07-29T10:47:32.298Z,2.15
2022-07-29T10:50:01.084Z,2.53
2022-07-29T10:52:47.803Z,0.80
2022-07-29T10:55:37.701Z,3.20
2022-07-29T10:58:14.864Z,1.50
2022-07-29T11:00:42.196Z,2.92
2022-07-29T11:03:33.004Z,0.38
2022-07-29T11:06:00.599Z,1.95
2022-07-29T11:08:28.870Z,2.53
2022-07-29T11:11:17.364Z,1.25
2022-07-29T11:13:54.249Z,1.63
2022-07-29T11:16:24.947Z,1.88
2022-07-29T11:19:11.531Z,1.67
2022-07-29T11:21:55.068Z,1.23
2022-07-29T11:24:32.172Z,0.45
2022-07-29T11:27:16.720Z,3.42
2022-07-29T11:29:53.515Z,2.83
2022-07-29T11:32:22.701Z,0.85
2022-07-29T11:34:51.688Z,0.70
2022-07-29T11:37:20.020Z,0.52
2022-07-29T11:40:01.813Z,2.05
2022-07-29T11:45:44.231Z,1.67
2022-07-29T11:48:29.247Z,7.07
2022-07-29T11:50:56.447Z,0.73
2022-07-29T11:53:25.761Z,1.33
2022-07-29T11:55:58.617Z,0.70
2022-07-29T11:58:26.453Z,1.95
2022-07-29T12:00:55.236Z,0.43
2022-07-29T12:03:35.436Z,0.93
2022-07-29T12:06:07.344Z,2.20
2022-07-29T12:08:41.384Z,2.17
2022-07-29T12:11:17.069Z,0.43
2022-07-29T12:13:44.462Z,0.95
2022-07-29T12:16:14.754Z,0.65
2022-07-29T12:18:42.291Z,3.38
2022-07-29T12:21:09.611Z,1.60
2022-07-29T12:23:39.902Z,1.38
2022-07-29T12:26:10.875Z,0.80
2022-07-29T12:28:49.090Z,1.65
2022-07-29T12:31:42.202Z,6.80
2022-07-29T12:34:04.874Z,1.30
2022-07-29T12:36:32.213Z,0.77
2022-07-29T12:38:59.535Z,1.05
2022-07-29T12:41:26.926Z,2.08
2022-07-29T12:43:55.125Z,2.35
2022-07-29T12:46:22.712Z,1.48
2022-07-29T12:48:55.788Z,2.83
2022-07-29T12:51:35.515Z,1.52
2022-07-29T12:54:14.491Z,2.92
2022-07-29T12:56:44.310Z,0.77
2022-07-29T12:59:22.304Z,0.77
2022-07-29T13:01:50.983Z,3.00
2022-07-29T13:04:27.619Z,1.23
2022-07-29T13:07:07.491Z,2.28
2022-07-29T13:09:38.775Z,1.88
2022-07-29T13:12:13.298Z,2.75
2022-07-29T13:14:43.563Z,0.55
2022-07-29T13:17:12.493Z,3.47
2022-07-29T13:19:46.965Z,2.47
2022-07-29T13:22:16.237Z,2.53
2022-07-29T13:24:49.340Z,0.52
2022-07-29T13:27:17.427Z,3.42
2022-07-29T13:29:44.817Z,0.55
2022-07-29T13:32:13.348Z,6.25
2022-07-29T13:34:40.826Z,2.05
2022-07-29T13:37:08.154Z,0.43
2022-07-29T13:39:35.569Z,0.70
2022-07-29T13:42:02.971Z,1.90
2022-07-29T13:44:30.299Z,1.95
2022-07-29T13:46:59.689Z,2.15
2022-07-29T13:49:27.358Z,1.67
2022-07-29T13:51:55.366Z,4.28
2022-07-29T13:54:23.030Z,6.22
2022-07-29T13:56:51.555Z,1.25
2022-07-29T13:59:18.858Z,3.30
2022-07-29T14:01:46.251Z,2.17
2022-07-29T14:04:14.073Z,1.83
2022-07-29T14:06:41.496Z,3.05
2022-07-29T14:09:09.773Z,0.75
2022-07-29T14:11:39.443Z,4.25
2022-07-29T14:14:06.720Z,0.60
2022-07-29T14:16:35.524Z,2.35
2022-07-29T14:19:04.817Z,0.82
2022-07-29T14:21:32.092Z,2.22
2022-07-29T14:24:00.829Z,2.50
2022-07-29T14:26:28.227Z,0.68
2022-07-29T14:28:55.628Z,2.25
2022-07-29T14:31:23.168Z,4.18
2022-07-29T14:33:50.712Z,2.70
2022-07-29T14:36:18.006Z,7.07
2022-07-29T14:38:45.306Z,1.70
2022-07-29T14:41:12.938Z,7.10
2022-07-29T14:43:40.282Z,6.93
2022-07-29T14:46:09.004Z,5.95
2022-07-29T14:48:36.417Z,3.03
2022-07-29T14:51:05.081Z,0.25
2022-07-29T14:53:32.577Z,3.63
2022-07-29T14:56:10.276Z,2.38
2022-07-29T14:58:51.687Z,2.35
2022-07-29T15:01:19.427Z,2.20
2022-07-29T15:03:46.889Z,1.75
2022-07-29T15:06:14.230Z,3.40
2022-07-29T15:08:41.603Z,4.65
2022-07-29T15:11:09.125Z,4.88
2022-07-29T15:13:36.481Z,3.20
2022-07-29T15:16:03.938Z,0.40
2022-07-29T15:18:31.285Z,0.52
2022-07-29T15:21:01.489Z,0.65
2022-07-29T15:23:28.942Z,0.70
2022-07-29T15:25:56.331Z,0.70
2022-07-29T15:28:23.738Z,7.63
2022-07-29T15:30:51.033Z,0.70
2022-07-29T15:33:18.929Z,2.22
2022-07-29T15:35:46.230Z,1.60
2022-07-29T15:38:13.557Z,2.20
2022-07-29T15:40:44.716Z,1.77
2022-07-29T15:46:13.802Z,2.78
2022-07-29T15:48:41.433Z,1.85
2022-07-29T15:51:08.819Z,2.38
2022-07-29T15:53:36.207Z,3.85
2022-07-29T15:56:03.806Z,2.60
2022-07-29T15:58:31.290Z,0.20
2022-07-29T16:00:58.981Z,3.05
2022-07-29T16:03:26.416Z,0.55
2022-07-29T16:05:53.742Z,1.25
2022-07-29T16:08:21.071Z,0.85
2022-07-29T16:10:48.410Z,1.17
2022-07-29T16:13:17.868Z,0.50
2022-07-29T16:15:46.411Z,2.17
2022-07-29T16:18:30.527Z,6.45
2022-07-29T16:20:58.118Z,4.28
2022-07-29T16:23:25.499Z,2.75
2022-07-29T16:26:01.046Z,6.63
2022-07-29T16:28:29.359Z,2.58
2022-07-29T16:30:57.306Z,0.38
2022-07-29T16:33:24.819Z,0.45
2022-07-29T16:35:52.674Z,1.80
2022-07-29T16:38:20.091Z,5.07
2022-07-29T16:40:47.536Z,0.80
2022-07-29T16:43:15.025Z,2.85
2022-07-29T16:45:46.112Z,0.77
2022-07-29T16:48:14.692Z,0.90
2022-07-29T16:50:43.375Z,2.95
2022-07-29T16:53:11.361Z,0.22
2022-07-29T16:55:38.949Z,1.48
2022-07-29T17:00:37.267Z,1.27
2022-07-29T17:03:05.546Z,1.08
2022-07-29T17:05:52.610Z,0.88
2022-07-29T17:08:20.293Z,0.45
2022-07-29T17:10:47.748Z,2.47
2022-07-29T17:13:15.170Z,0.82
2022-07-29T17:15:43.168Z,0.20
2022-07-29T17:18:12.354Z,1.42
2022-07-29T17:20:40.123Z,1.83
2022-07-29T17:23:08.470Z,0.40
2022-07-29T17:25:35.800Z,2.17
2022-07-29T17:28:03.115Z,0.20
2022-07-29T17:30:30.846Z,0.70
2022-07-29T17:32:58.191Z,0.65
2022-07-29T17:35:44.342Z,0.40
2022-07-29T17:38:11.738Z,3.50
2022-07-29T17:40:39.019Z,1.58
2022-07-29T17:43:09.294Z,0.70
2022-07-29T17:45:48.737Z,1.43
2022-07-29T17:50:45.718Z,1.83
2022-07-29T17:53:16.341Z,2.42
2022-07-29T17:55:45.484Z,1.88
2022-07-29T17:58:13.343Z,2.30
2022-07-29T18:00:40.700Z,1.85
2022-07-29T18:03:08.121Z,1.10
2022-07-29T18:05:35.542Z,1.85
2022-07-29T18:08:02.838Z,0.60
2022-07-29T18:10:30.439Z,1.60
2022-07-29T18:12:57.958Z,2.05
2022-07-29T18:15:25.252Z,2.70
2022-07-29T18:17:57.711Z,1.75
2022-07-29T18:20:26.039Z,1.42
2022-07-29T18:22:53.451Z,2.15
2022-07-29T18:25:20.942Z,1.65
2022-07-29T18:27:48.372Z,4.40
2022-07-29T18:30:16.258Z,1.63
2022-07-29T18:32:59.211Z,2.45
2022-07-29T18:35:31.550Z,1.92
2022-07-29T18:38:00.782Z,1.80
2022-07-29T18:40:29.738Z,1.45
2022-07-29T18:42:57.197Z,1.65
2022-07-29T18:45:28.605Z,0.93
2022-07-29T18:47:56.322Z,0.90
2022-07-29T18:50:29.655Z,2.05
2022-07-29T18:52:58.892Z,5.63
2022-07-29T18:55:26.665Z,1.52
2022-07-29T18:57:56.560Z,1.92
2022-07-29T19:00:24.419Z,0.85
2022-07-29T19:02:52.747Z,0.90
2022-07-29T19:05:20.363Z,1.50
2022-07-29T19:07:47.722Z,1.58
2022-07-29T19:10:15.127Z,0.45
2022-07-29T19:12:42.609Z,1.65
2022-07-29T19:15:10.884Z,3.90
2022-07-29T19:17:38.895Z,0.77
2022-07-29T19:20:07.280Z,1.08
2022-07-29T19:22:34.795Z,6.10
2022-07-29T19:25:02.114Z,1.30
2022-07-29T19:27:29.427Z,1.88
2022-07-29T19:29:59.257Z,0.77
2022-07-29T19:32:26.993Z,1.40
2022-07-29T19:35:13.369Z,1.15
2022-07-29T19:37:40.749Z,1.27
2022-07-29T19:40:08.288Z,1.05
2022-07-29T19:42:35.599Z,2.10
2022-07-29T19:45:02.945Z,4.00
2022-07-29T19:47:30.286Z,0.73
2022-07-29T19:49:57.581Z,3.00
2022-07-29T19:52:24.897Z,1.17
2022-07-29T19:54:52.680Z,2.53
2022-07-29T19:57:20.605Z,1.70
2022-07-29T19:59:47.969Z,1.23
2022-07-29T20:02:15.549Z,2.80
2022-07-29T20:04:43.609Z,4.13
2022-07-29T20:07:11.477Z,2.42
2022-07-29T20:09:40.815Z,2.97
2022-07-29T20:12:11.929Z,9.93
2022-07-29T20:17:06.505Z,8.63
2022-07-29T20:19:34.164Z,5.53
2022-07-29T20:22:01.472Z,5.10
2022-07-29T20:24:28.729Z,7.07
2022-07-29T20:26:56.052Z,2.65
2022-07-29T20:29:23.556Z,3.28
2022-07-29T20:31:51.501Z,2.78
2022-07-29T20:34:23.894Z,2.13
2022-07-29T20:36:51.196Z,3.10
2022-07-29T20:39:18.750Z,2.45
2022-07-29T20:41:46.043Z,2.95
2022-07-29T20:44:13.439Z,2.92
2022-07-29T20:46:40.803Z,4.32
2022-07-29T20:49:08.405Z,9.07
2022-07-29T20:51:43.613Z,1.67
2022-07-29T20:54:11.594Z,1.70
2022-07-29T20:56:38.929Z,1.80
2022-07-29T20:59:06.276Z,1.27
2022-07-29T21:01:33.681Z,0.95
2022-07-29T21:04:01.410Z,1.15
2022-07-29T21:06:28.722Z,1.50
2022-07-29T21:08:58.036Z,2.28
2022-07-29T21:11:44.172Z,1.27
2022-07-29T21:14:22.527Z,0.65
2022-07-29T21:16:50.424Z,0.38
2022-07-29T21:19:17.748Z,2.92
2022-07-29T21:21:45.090Z,1.08
2022-07-29T21:24:12.442Z,2.47
2022-07-29T21:26:39.799Z,1.02
2022-07-29T21:29:07.123Z,1.48
2022-07-29T21:31:34.420Z,1.70
2022-07-29T21:34:01.707Z,2.63
2022-07-29T21:36:47.770Z,9.02
2022-07-29T21:39:15.727Z,6.35
2022-07-29T21:41:43.066Z,4.13
2022-07-29T21:44:10.411Z,12.05
2022-07-29T21:46:37.777Z,11.80
2022-07-29T21:49:05.235Z,12.30
2022-07-29T21:51:32.686Z,9.50
2022-07-29T21:53:59.976Z,16.60
2022-07-29T21:56:27.869Z,6.65
2022-07-29T21:58:55.427Z,20.10
2022-07-29T22:01:23.059Z,13.63
2022-07-29T22:03:50.580Z,12.77
2022-07-29T22:06:18.361Z,18.77
2022-07-29T22:08:46.190Z,22.55
2022-07-29T22:11:14.001Z,15.75
2022-07-29T22:13:41.278Z,19.48
2022-07-29T22:16:10.274Z,21.55
2022-07-29T22:18:37.619Z,16.95
2022-07-29T22:21:04.943Z,16.38
2022-07-29T22:23:32.252Z,11.85
2022-07-29T22:25:59.563Z,15.10
2022-07-29T22:28:26.864Z,15.52
2022-07-29T22:30:54.293Z,19.30
2022-07-29T22:33:23.180Z,14.88
2022-07-29T22:35:50.756Z,18.23
2022-07-29T22:38:18.675Z,17.15
2022-07-29T22:40:47.029Z,19.48
2022-07-29T22:43:16.097Z,14.10
2022-07-29T22:45:43.471Z,9.25
2022-07-29T22:48:10.922Z,11.57
2022-07-29T22:50:38.946Z,11.75
2022-07-29T22:53:06.267Z,14.60
2022-07-29T22:55:33.619Z,11.85
2022-07-29T22:58:00.964Z,9.88
2022-07-29T23:00:28.316Z,10.80
2022-07-29T23:02:55.646Z,10.00
2022-07-29T23:05:22.993Z,8.60
2022-07-29T23:07:50.276Z,15.68
2022-07-29T23:10:17.653Z,7.80
2022-07-29T23:12:45.752Z,11.20
2022-07-29T23:15:13.193Z,12.63
2022-07-29T23:17:40.522Z,11.75
2022-07-29T23:20:09.805Z,11.35
2022-07-29T23:22:37.345Z,13.55
2022-07-29T23:25:06.369Z,13.50
2022-07-29T23:27:33.729Z,6.72
2022-07-29T23:30:01.078Z,7.38
2022-07-29T23:32:28.417Z,9.63
2022-07-29T23:34:55.708Z,7.47
2022-07-29T23:37:23.009Z,6.68
2022-07-29T23:39:50.314Z,4.35
2022-07-29T23:42:17.692Z,6.70
2022-07-29T23:44:44.975Z,3.95
2022-07-29T23:47:12.287Z,8.65
2022-07-29T23:49:39.595Z,7.28
2022-07-29T23:52:07.095Z,5.05
2022-07-29T23:54:34.481Z,11.77
2022-07-29T23:57:02.093Z,4.10
2022-07-29T23:59:29.687Z,7.00
